createdAt,value
2019-03-28T00:03:11.752Z,98299.80
2019-03-28T00:08:06.327Z,98291.02
2019-03-28T00:13:01.309Z,98295.70
2019-03-28T00:17:55.902Z,98297.72
2019-03-28T00:23:07.889Z,98296.05
2019-03-28T00:28:02.473Z,98300.05
2019-03-28T00:32:57.075Z,98298.73
2019-03-28T00:37:51.642Z,98295.95
2019-03-28T00:42:46.250Z,98300.81
2019-03-28T00:47:41.857Z,98299.86
2019-03-28T00:52:36.458Z,98296.94
2019-03-28T00:57:31.031Z,98294.50
2019-03-28T01:02:25.644Z,98286.84
2019-03-28T01:07:20.369Z,98280.87
2019-03-28T01:12:15.403Z,98279.59
2019-03-28T01:17:10.003Z,98282.55
2019-03-28T01:22:04.625Z,98280.34
2019-03-28T01:26:59.211Z,98280.80
2019-03-28T01:31:53.792Z,98272.16
2019-03-28T01:36:48.400Z,98273.63
2019-03-28T01:41:43.005Z,98274.05
2019-03-28T01:46:37.590Z,98265.36
2019-03-28T01:51:33.016Z,98257.59
2019-03-28T01:56:27.640Z,98262.48
2019-03-28T02:01:22.327Z,98259.47
2019-03-28T02:07:29.186Z,98262.19
2019-03-28T02:12:23.748Z,98248.08
2019-03-28T02:17:18.329Z,98251.08
2019-03-28T02:22:12.913Z,98254.48
2019-03-28T02:27:07.613Z,98256.25
2019-03-28T02:32:02.165Z,98250.11
2019-03-28T02:36:56.800Z,98258.95
2019-03-28T02:41:51.381Z,98256.76
2019-03-28T02:46:45.970Z,98253.48
2019-03-28T02:51:40.539Z,98253.25
2019-03-28T02:56:35.904Z,98246.97
2019-03-28T03:01:30.523Z,98245.36
2019-03-28T03:06:25.650Z,98245.44
2019-03-28T03:11:20.228Z,98243.32
2019-03-28T03:16:14.850Z,98244.00
2019-03-28T03:21:10.001Z,98239.73
2019-03-28T03:26:05.224Z,98245.69
2019-03-28T03:30:59.839Z,98247.10
2019-03-28T03:35:54.418Z,98257.05
2019-03-28T03:40:49.066Z,98249.16
2019-03-28T03:45:44.208Z,98245.42
2019-03-28T03:50:38.801Z,98243.17
2019-03-28T03:55:33.409Z,98240.09
2019-03-28T04:00:35.101Z,98233.27
2019-03-28T04:05:31.633Z,98234.59
2019-03-28T04:10:26.250Z,98238.36
2019-03-28T04:15:21.011Z,98240.95
2019-03-28T04:20:15.612Z,98232.34
2019-03-28T04:25:10.428Z,98223.80
2019-03-28T04:30:09.541Z,98236.48
2019-03-28T04:35:05.793Z,98235.02
2019-03-28T04:40:00.502Z,98235.14
2019-03-28T04:44:55.128Z,98234.91
2019-03-28T04:49:49.724Z,98234.63
2019-03-28T04:54:44.420Z,98231.87
2019-03-28T04:59:39.007Z,98225.40
2019-03-28T05:04:33.642Z,98227.04
2019-03-28T05:09:28.228Z,98220.78
2019-03-28T05:14:22.843Z,98218.14
2019-03-28T05:19:17.507Z,98220.06
2019-03-28T05:24:12.124Z,98226.78
2019-03-28T05:29:06.714Z,98227.98
2019-03-28T05:34:01.326Z,98224.36
2019-03-28T05:38:55.919Z,98215.14
2019-03-28T05:43:50.540Z,98216.79
2019-03-28T05:48:45.195Z,98223.20
2019-03-28T05:53:39.803Z,98229.05
2019-03-28T05:58:34.382Z,98230.28
2019-03-28T06:03:28.974Z,98234.09
2019-03-28T06:08:23.555Z,98240.48
2019-03-28T06:13:18.146Z,98240.11
2019-03-28T06:18:12.731Z,98226.52
2019-03-28T06:23:07.349Z,98234.59
2019-03-28T06:28:01.934Z,98235.08
2019-03-28T06:32:58.870Z,98244.81
2019-03-28T06:37:52.889Z,98240.36
2019-03-28T06:42:47.492Z,98246.28
2019-03-28T06:47:42.087Z,98251.64
2019-03-28T06:52:36.724Z,98267.97
2019-03-28T06:57:31.371Z,98263.46
2019-03-28T07:02:26.000Z,98265.76
2019-03-28T07:07:21.485Z,98261.30
2019-03-28T07:12:20.568Z,98260.00
2019-03-28T07:17:15.724Z,98259.30
2019-03-28T07:22:10.532Z,98270.78
2019-03-28T07:27:05.183Z,98262.00
2019-03-28T07:31:59.804Z,98267.52
2019-03-28T07:36:54.385Z,98273.81
2019-03-28T07:41:49.001Z,98258.22
2019-03-28T07:46:43.639Z,98263.91
2019-03-28T07:51:38.318Z,98262.56
2019-03-28T07:56:32.889Z,98270.07
2019-03-28T08:01:27.507Z,98247.13
2019-03-28T08:06:22.153Z,98257.83
2019-03-28T08:11:16.748Z,98242.73
2019-03-28T08:16:11.852Z,98241.98
2019-03-28T08:21:09.178Z,98244.67
2019-03-28T08:26:16.847Z,98252.56
2019-03-28T08:31:12.980Z,98252.80
2019-03-28T08:36:07.897Z,98254.84
2019-03-28T08:41:02.479Z,98256.09
2019-03-28T08:45:57.125Z,98262.01
2019-03-28T08:50:52.876Z,98252.94
2019-03-28T08:55:48.890Z,98266.77
2019-03-28T09:00:53.033Z,98251.36
2019-03-28T09:05:47.803Z,98237.58
2019-03-28T09:10:42.622Z,98244.77
2019-03-28T09:15:43.774Z,98239.89
2019-03-28T09:20:34.502Z,98229.73
2019-03-28T09:25:29.527Z,98228.44
2019-03-28T09:30:49.340Z,98236.80
2019-03-28T09:35:43.707Z,98225.78
2019-03-28T09:40:42.061Z,98204.34
2019-03-28T09:45:37.279Z,98232.98
2019-03-28T09:50:35.132Z,98210.29
2019-03-28T09:55:36.294Z,98212.61
2019-03-28T10:00:34.725Z,98210.91
2019-03-28T10:05:38.449Z,98202.45
2019-03-28T10:10:34.013Z,98211.47
2019-03-28T10:15:28.823Z,98198.09
2019-03-28T10:20:23.544Z,98203.09
2019-03-28T10:25:18.928Z,98188.86
2019-03-28T10:30:15.600Z,98193.92
2019-03-28T10:35:13.388Z,98191.16
2019-03-28T10:40:09.397Z,98183.20
2019-03-28T10:45:05.518Z,98193.66
2019-03-28T10:50:04.203Z,98186.12
2019-03-28T10:54:57.152Z,98180.67
2019-03-28T10:59:51.886Z,98178.07
2019-03-28T11:04:46.424Z,98191.38
2019-03-28T11:09:41.386Z,98183.78
2019-03-28T11:14:36.098Z,98172.67
2019-03-28T11:19:30.711Z,98176.20
2019-03-28T11:24:25.296Z,98166.50
2019-03-28T11:29:20.740Z,98157.59
2019-03-28T11:34:15.387Z,98165.58
2019-03-28T11:39:10.153Z,98159.58
2019-03-28T11:44:04.875Z,98149.68
2019-03-28T11:49:00.263Z,98169.20
2019-03-28T11:54:02.340Z,98148.77
2019-03-28T11:58:57.219Z,98156.36
2019-03-28T12:03:51.797Z,98137.64
2019-03-28T12:08:46.403Z,98137.14
2019-03-28T12:13:45.085Z,98131.27
2019-03-28T12:18:37.392Z,98135.66
2019-03-28T12:23:32.626Z,98140.45
2019-03-28T12:28:27.240Z,98160.44
2019-03-28T12:33:23.006Z,98116.65
2019-03-28T12:38:17.596Z,98123.58
2019-03-28T12:43:12.194Z,98106.62
2019-03-28T12:48:06.969Z,98094.99
2019-03-28T12:53:03.771Z,98105.55
2019-03-28T12:57:58.378Z,98090.58
2019-03-28T13:02:52.996Z,98094.65
2019-03-28T13:07:47.720Z,98097.23
2019-03-28T13:12:42.384Z,98097.58
2019-03-28T13:17:37.319Z,98100.12
2019-03-28T13:22:31.976Z,98085.75
2019-03-28T13:27:26.614Z,98082.70
2019-03-28T13:32:21.329Z,98089.50
2019-03-28T13:37:16.849Z,98086.19
2019-03-28T13:42:12.592Z,98085.17
2019-03-28T13:47:07.306Z,98086.58
2019-03-28T13:52:02.638Z,98074.88
2019-03-28T13:56:57.347Z,98085.05
2019-03-28T14:01:52.297Z,98079.23
2019-03-28T14:06:51.054Z,98067.37
2019-03-28T14:11:46.045Z,98061.19
2019-03-28T14:16:41.178Z,98074.98
2019-03-28T14:21:35.755Z,98093.36
2019-03-28T14:26:30.408Z,98071.78
2019-03-28T14:31:25.038Z,98070.74
2019-03-28T14:36:19.726Z,98066.81
2019-03-28T14:41:15.573Z,98053.54
2019-03-28T14:46:10.277Z,98051.55
2019-03-28T14:51:05.172Z,98054.03
2019-03-28T14:56:03.159Z,98070.63
2019-03-28T15:00:57.835Z,98069.57
2019-03-28T15:05:53.383Z,98081.56
2019-03-28T15:10:49.520Z,98068.58
2019-03-28T15:15:45.055Z,98066.81
2019-03-28T15:20:39.840Z,98063.00
2019-03-28T15:25:34.642Z,98067.72
2019-03-28T15:30:29.879Z,98060.88
2019-03-28T15:35:24.693Z,98070.96
2019-03-28T15:40:19.551Z,98064.78
2019-03-28T15:45:14.580Z,98065.52
2019-03-28T15:50:09.777Z,98056.54
2019-03-28T15:55:05.818Z,98065.63
2019-03-28T16:00:04.463Z,98065.58
2019-03-28T16:04:59.143Z,98063.19
2019-03-28T16:09:53.774Z,98066.29
2019-03-28T16:14:48.523Z,98061.87
2019-03-28T16:19:45.092Z,98073.35
2019-03-28T16:24:39.985Z,98081.57
2019-03-28T16:29:36.026Z,98075.43
2019-03-28T16:34:30.659Z,98071.91
2019-03-28T16:39:25.261Z,98073.87
2019-03-28T16:44:19.874Z,98074.34
2019-03-28T16:49:15.279Z,98070.26
2019-03-28T16:54:09.883Z,98076.64
2019-03-28T16:59:04.477Z,98069.69
2019-03-28T17:03:59.150Z,98073.37
2019-03-28T17:08:54.272Z,98084.56
2019-03-28T17:13:48.892Z,98093.28
2019-03-28T17:18:43.463Z,98088.23
2019-03-28T17:23:38.083Z,98088.70
2019-03-28T17:28:32.757Z,98086.22
2019-03-28T17:33:27.391Z,98090.98
2019-03-28T17:38:22.454Z,98093.61
2019-03-28T17:43:17.333Z,98097.14
2019-03-28T17:48:11.928Z,98101.00
2019-03-28T17:53:06.535Z,98108.55
2019-03-28T17:58:01.124Z,98103.80
2019-03-28T18:03:08.592Z,98111.06
2019-03-28T18:07:52.199Z,98117.50
2019-03-28T18:12:46.945Z,98122.72
2019-03-28T18:17:41.536Z,98123.41
2019-03-28T18:22:39.242Z,98127.13
2019-03-28T18:27:33.838Z,98126.87
2019-03-28T18:32:28.508Z,98136.79
2019-03-28T18:37:23.201Z,98139.75
2019-03-28T18:42:17.823Z,98139.59
2019-03-28T18:47:12.406Z,98137.53
2019-03-28T18:52:07.552Z,98146.08
2019-03-28T18:57:03.368Z,98148.05
2019-03-28T19:01:58.044Z,98149.37
2019-03-28T19:06:52.707Z,98149.73
2019-03-28T19:11:47.302Z,98144.37
2019-03-28T19:16:42.312Z,98154.61
2019-03-28T19:21:36.964Z,98166.56
2019-03-28T19:26:31.539Z,98159.00
2019-03-28T19:31:26.155Z,98161.96
2019-03-28T19:36:22.504Z,98165.47
2019-03-28T19:41:17.098Z,98164.28
2019-03-28T19:46:11.915Z,98169.48
2019-03-28T19:51:07.961Z,98168.49
2019-03-28T19:56:03.226Z,98169.25
2019-03-28T20:00:57.899Z,98165.20
2019-03-28T20:05:52.493Z,98168.73
2019-03-28T20:10:47.192Z,98165.80
2019-03-28T20:15:41.774Z,98171.00
2019-03-28T20:20:36.376Z,98169.48
2019-03-28T20:25:30.979Z,98167.13
2019-03-28T20:30:25.781Z,98173.50
2019-03-28T20:35:20.475Z,98167.92
2019-03-28T20:40:17.846Z,98168.67
2019-03-28T20:45:14.435Z,98161.08
2019-03-28T20:50:11.757Z,98164.95
2019-03-28T20:55:07.877Z,98176.28
2019-03-28T21:00:02.552Z,98178.34
2019-03-28T21:04:57.268Z,98175.39
2019-03-28T21:09:52.001Z,98163.44
2019-03-28T21:14:46.548Z,98161.37
2019-03-28T21:19:41.129Z,98169.42
2019-03-28T21:24:35.705Z,98160.00
2019-03-28T21:29:33.699Z,98156.27
2019-03-28T21:34:26.774Z,98157.73
2019-03-28T21:39:21.348Z,98157.06
2019-03-28T21:44:15.939Z,98157.61
2019-03-28T21:49:10.520Z,98159.98
2019-03-28T21:54:05.337Z,98156.30
2019-03-28T21:58:59.939Z,98159.09
2019-03-28T22:03:54.566Z,98168.06
2019-03-28T22:08:49.293Z,98172.47
2019-03-28T22:13:43.859Z,98165.79
2019-03-28T22:18:38.455Z,98171.50
2019-03-28T22:23:33.027Z,98170.73
2019-03-28T22:28:27.626Z,98167.34
2019-03-28T22:33:22.204Z,98158.91
2019-03-28T22:38:16.795Z,98160.00
2019-03-28T22:43:11.370Z,98153.67
2019-03-28T22:48:11.206Z,98147.77
2019-03-28T22:53:02.498Z,98147.98
2019-03-28T22:57:57.079Z,98146.03
2019-03-28T23:02:51.656Z,98140.40
2019-03-28T23:07:46.251Z,98141.06
2019-03-28T23:12:41.607Z,98140.27
2019-03-28T23:17:36.572Z,98129.30
2019-03-28T23:22:31.262Z,98119.41
2019-03-28T23:27:27.004Z,98126.34
2019-03-28T23:32:21.976Z,98118.41
2019-03-28T23:37:24.547Z,98108.73
2019-03-28T23:42:13.831Z,98109.43
2019-03-28T23:47:08.777Z,98110.43
2019-03-28T23:52:03.360Z,98108.98
2019-03-28T23:56:58.007Z,98099.75
